createdAt,value
2023-11-24T00:01:54.664Z,5.60
2023-11-24T00:04:21.090Z,4.43
2023-11-24T00:06:47.513Z,7.15
2023-11-24T00:09:14.683Z,7.70
2023-11-24T00:11:43.526Z,7.45
2023-11-24T00:14:10.141Z,7.70
2023-11-24T00:16:39.993Z,10.85
2023-11-24T00:19:11.717Z,10.77
2023-11-24T00:21:38.358Z,10.38
2023-11-24T00:24:05.864Z,12.35
2023-11-24T00:26:33.434Z,9.27
2023-11-24T00:29:00.830Z,8.40
2023-11-24T00:31:27.444Z,10.40
2023-11-24T00:33:54.265Z,11.60
2023-11-24T00:36:22.034Z,13.25
2023-11-24T00:38:51.385Z,9.70
2023-11-24T00:41:18.452Z,12.32
2023-11-24T00:43:48.737Z,16.75
2023-11-24T00:46:16.193Z,11.73
2023-11-24T00:48:42.694Z,14.27
2023-11-24T00:51:09.109Z,10.70
2023-11-24T00:53:36.257Z,16.50
2023-11-24T00:56:03.035Z,16.42
2023-11-24T00:58:29.404Z,19.45
2023-11-24T01:00:56.154Z,11.50
2023-11-24T01:03:22.948Z,17.27
2023-11-24T01:05:53.918Z,16.00
2023-11-24T01:08:20.799Z,15.13
2023-11-24T01:10:47.729Z,16.02
2023-11-24T01:13:14.330Z,16.63
2023-11-24T01:15:40.774Z,12.85
2023-11-24T01:18:08.055Z,13.75
2023-11-24T01:20:35.813Z,16.27
2023-11-24T01:23:02.392Z,15.45
2023-11-24T01:25:28.836Z,11.15
2023-11-24T01:27:56.289Z,17.38
2023-11-24T01:30:22.779Z,14.80
2023-11-24T01:32:49.289Z,17.08
2023-11-24T01:35:15.751Z,19.98
2023-11-24T01:37:42.174Z,16.05
2023-11-24T01:40:09.616Z,21.10
2023-11-24T01:42:39.625Z,17.67
2023-11-24T01:45:08.728Z,20.30
2023-11-24T01:47:35.386Z,16.33
2023-11-24T01:50:03.675Z,15.23
2023-11-24T01:52:31.865Z,15.57
2023-11-24T01:54:58.347Z,10.25
2023-11-24T01:57:25.091Z,18.48
2023-11-24T01:59:51.745Z,16.80
2023-11-24T02:02:21.843Z,15.27
2023-11-24T02:04:48.582Z,17.90
2023-11-24T02:07:15.223Z,16.33
2023-11-24T02:09:42.260Z,13.80
2023-11-24T02:12:08.751Z,17.02
2023-11-24T02:14:35.168Z,20.42
2023-11-24T02:17:01.578Z,18.08
2023-11-24T02:19:28.474Z,18.58
2023-11-24T02:21:55.024Z,18.80
2023-11-24T02:24:21.493Z,22.40
2023-11-24T02:26:47.927Z,19.38
2023-11-24T02:29:14.371Z,19.92
2023-11-24T02:31:41.210Z,15.35
2023-11-24T02:34:08.930Z,19.50
2023-11-24T02:36:37.386Z,14.90
2023-11-24T02:39:04.527Z,14.05
2023-11-24T02:41:31.415Z,15.40
2023-11-24T02:43:57.940Z,20.98
2023-11-24T02:46:24.389Z,14.38
2023-11-24T02:48:50.814Z,11.05
2023-11-24T02:51:19.153Z,13.50
2023-11-24T02:53:46.305Z,9.02
2023-11-24T02:56:13.734Z,11.18
2023-11-24T02:58:40.280Z,11.20
2023-11-24T03:01:06.850Z,7.82
2023-11-24T03:03:33.701Z,8.57
2023-11-24T03:06:06.763Z,7.70
2023-11-24T03:08:33.797Z,14.18
2023-11-24T03:11:06.047Z,9.75
2023-11-24T03:13:35.825Z,16.27
2023-11-24T03:16:04.549Z,11.38
2023-11-24T03:18:31.071Z,12.05
2023-11-24T03:20:57.479Z,9.57
2023-11-24T03:23:24.595Z,10.43
2023-11-24T03:25:51.463Z,11.68
2023-11-24T03:28:19.499Z,9.35
2023-11-24T03:30:47.547Z,11.27
2023-11-24T03:33:15.606Z,15.15
2023-11-24T03:35:42.057Z,13.10
2023-11-24T03:38:08.729Z,12.60
2023-11-24T03:40:35.159Z,15.00
2023-11-24T03:43:03.683Z,11.57
2023-11-24T03:45:30.862Z,13.27
2023-11-24T03:47:57.325Z,13.88
2023-11-24T03:50:24.193Z,15.77
2023-11-24T03:52:50.597Z,10.77
2023-11-24T03:55:17.091Z,13.82
2023-11-24T03:57:45.263Z,10.65
2023-11-24T04:00:12.064Z,13.05
2023-11-24T04:02:39.185Z,11.20
2023-11-24T04:05:06.674Z,15.50
2023-11-24T04:07:33.193Z,12.35
2023-11-24T04:09:59.645Z,10.02
2023-11-24T04:12:26.084Z,12.32
2023-11-24T04:14:53.530Z,16.15
2023-11-24T04:17:19.913Z,10.40
2023-11-24T04:19:46.327Z,15.43
2023-11-24T04:22:12.736Z,14.50
2023-11-24T04:24:40.050Z,12.85
2023-11-24T04:27:06.523Z,16.75
2023-11-24T04:29:32.958Z,13.52
2023-11-24T04:31:59.292Z,15.48
2023-11-24T04:34:25.789Z,10.10
2023-11-24T04:36:53.055Z,10.23
2023-11-24T04:39:19.493Z,9.68
2023-11-24T04:41:48.623Z,11.60
2023-11-24T04:44:15.341Z,12.43
2023-11-24T04:46:41.784Z,13.32
2023-11-24T04:49:08.314Z,10.40
2023-11-24T04:51:34.757Z,12.63
2023-11-24T04:54:03.809Z,8.57
2023-11-24T04:56:30.996Z,11.23
2023-11-24T04:58:57.828Z,11.00
2023-11-24T05:01:25.625Z,12.38
2023-11-24T05:03:54.932Z,13.05
2023-11-24T05:06:22.124Z,11.18
2023-11-24T05:08:49.077Z,10.93
2023-11-24T05:11:15.511Z,12.55
2023-11-24T05:13:41.855Z,10.77
2023-11-24T05:16:08.378Z,11.23
2023-11-24T05:18:34.801Z,12.70
2023-11-24T05:21:01.167Z,6.57
2023-11-24T05:23:27.514Z,11.68
2023-11-24T05:25:54.228Z,13.52
2023-11-24T05:28:20.768Z,11.60
2023-11-24T05:30:47.178Z,9.10
2023-11-24T05:33:13.663Z,10.18
2023-11-24T05:35:40.054Z,13.20
2023-11-24T05:38:06.694Z,9.57
2023-11-24T05:40:33.112Z,9.85
2023-11-24T05:42:59.577Z,14.63
2023-11-24T05:45:25.992Z,13.52
2023-11-24T05:47:52.669Z,12.63
2023-11-24T05:50:23.664Z,12.80
2023-11-24T05:52:50.294Z,11.82
2023-11-24T05:55:16.815Z,13.93
2023-11-24T05:57:44.159Z,6.65
2023-11-24T06:00:12.599Z,12.23
2023-11-24T06:02:38.992Z,11.32
2023-11-24T06:05:06.225Z,9.48
2023-11-24T06:07:32.748Z,10.65
2023-11-24T06:09:59.149Z,10.63
2023-11-24T06:12:26.098Z,11.20
2023-11-24T06:14:52.546Z,10.40
2023-11-24T06:17:19.107Z,7.90
2023-11-24T06:19:45.543Z,9.73
2023-11-24T06:22:11.949Z,11.20
2023-11-24T06:24:38.346Z,12.55
2023-11-24T06:27:05.471Z,16.10
2023-11-24T06:29:32.120Z,12.38
2023-11-24T06:31:58.464Z,8.90
2023-11-24T06:34:26.073Z,7.25
2023-11-24T06:36:52.818Z,7.20
2023-11-24T06:39:22.620Z,4.10
2023-11-24T06:41:49.023Z,11.70
2023-11-24T06:44:17.083Z,11.40
2023-11-24T06:46:43.847Z,9.30
2023-11-24T06:49:10.900Z,11.35
2023-11-24T06:51:37.458Z,10.40
2023-11-24T06:54:04.258Z,10.32
2023-11-24T06:56:32.349Z,11.02
2023-11-24T06:58:58.741Z,12.70
2023-11-24T07:01:33.858Z,9.30
2023-11-24T07:04:01.042Z,8.02
2023-11-24T07:06:27.588Z,9.95
2023-11-24T07:08:54.038Z,8.43
2023-11-24T07:11:21.467Z,5.18
2023-11-24T07:13:48.050Z,8.98
2023-11-24T07:16:15.099Z,11.20
2023-11-24T07:18:41.757Z,12.68
2023-11-24T07:21:08.741Z,7.95
2023-11-24T07:23:38.560Z,7.68
2023-11-24T07:26:09.270Z,10.70
2023-11-24T07:28:37.157Z,11.18
2023-11-24T07:31:05.126Z,8.65
2023-11-24T07:33:34.799Z,9.27
2023-11-24T07:36:01.529Z,11.88
2023-11-24T07:38:27.982Z,8.65
2023-11-24T07:40:55.220Z,6.25
2023-11-24T07:43:21.601Z,2.92
2023-11-24T07:45:50.175Z,8.18
2023-11-24T07:48:16.751Z,8.32
2023-11-24T07:50:43.176Z,5.10
2023-11-24T07:53:16.226Z,6.18
2023-11-24T07:55:42.822Z,16.55
2023-11-24T07:58:09.970Z,4.60
2023-11-24T08:00:36.496Z,6.43
2023-11-24T08:03:04.345Z,8.27
2023-11-24T08:05:30.955Z,5.15
2023-11-24T08:07:58.465Z,5.65
2023-11-24T08:10:26.176Z,4.97
2023-11-24T08:15:43.039Z,6.28
2023-11-24T08:18:09.527Z,6.72
2023-11-24T08:20:36.073Z,3.67
2023-11-24T08:23:02.423Z,3.97
2023-11-24T08:25:28.785Z,4.40
2023-11-24T08:27:55.174Z,7.30
2023-11-24T08:30:21.522Z,8.15
2023-11-24T08:32:49.725Z,8.07
2023-11-24T08:35:16.592Z,17.67
2023-11-24T08:37:43.161Z,3.75
2023-11-24T08:40:12.446Z,7.97
2023-11-24T08:42:39.776Z,8.88
2023-11-24T08:45:07.637Z,3.30
2023-11-24T08:47:34.120Z,3.92
2023-11-24T08:50:00.973Z,4.18
2023-11-24T08:52:27.588Z,2.72
2023-11-24T08:54:53.968Z,5.30
2023-11-24T08:57:20.382Z,1.17
2023-11-24T08:59:46.796Z,3.20
2023-11-24T09:02:13.438Z,1.77
2023-11-24T09:04:39.900Z,1.50
2023-11-24T09:07:06.431Z,2.15
2023-11-24T09:09:34.444Z,4.07
2023-11-24T09:12:01.684Z,4.10
2023-11-24T09:14:28.435Z,4.80
2023-11-24T09:16:55.314Z,3.33
2023-11-24T09:19:21.731Z,5.50
2023-11-24T09:21:49.537Z,3.22
2023-11-24T09:24:16.500Z,3.42
2023-11-24T09:26:44.488Z,2.70
2023-11-24T09:29:11.247Z,4.20
2023-11-24T09:31:38.195Z,5.82
2023-11-24T09:34:05.432Z,7.93
2023-11-24T09:36:31.942Z,5.78
2023-11-24T09:38:58.370Z,8.60
2023-11-24T09:41:24.763Z,5.45
2023-11-24T09:43:51.271Z,5.07
2023-11-24T09:46:20.651Z,7.55
2023-11-24T09:48:49.148Z,4.25
2023-11-24T09:51:18.440Z,4.60
2023-11-24T09:53:45.322Z,6.63
2023-11-24T09:56:11.955Z,6.35
2023-11-24T09:58:38.415Z,7.68
2023-11-24T10:01:17.793Z,10.45
2023-11-24T10:03:50.972Z,4.90
2023-11-24T10:06:19.285Z,7.63
2023-11-24T10:08:48.838Z,4.22
2023-11-24T10:11:19.291Z,5.95
2023-11-24T10:13:49.952Z,8.23
2023-11-24T10:16:17.959Z,3.90
2023-11-24T10:18:44.657Z,6.68
2023-11-24T10:21:23.097Z,7.70
2023-11-24T10:23:57.201Z,5.75
2023-11-24T10:26:26.115Z,5.85
2023-11-24T10:28:53.430Z,5.97
2023-11-24T10:31:20.797Z,5.40
2023-11-24T10:33:48.404Z,6.22
2023-11-24T10:36:18.302Z,3.58
2023-11-24T10:38:47.340Z,3.17
2023-11-24T10:41:20.760Z,4.13
2023-11-24T10:43:49.504Z,6.47
2023-11-24T10:46:19.531Z,3.88
2023-11-24T10:49:00.646Z,6.03
2023-11-24T10:51:33.330Z,6.95
2023-11-24T10:54:03.617Z,4.43
2023-11-24T10:56:32.414Z,5.03
2023-11-24T10:59:00.696Z,3.53
2023-11-24T11:01:28.559Z,4.20
2023-11-24T11:03:59.958Z,2.30
2023-11-24T11:06:49.680Z,4.55
2023-11-24T11:09:24.911Z,3.03
2023-11-24T11:12:30.724Z,2.90
2023-11-24T11:14:57.285Z,3.97
2023-11-24T11:17:26.294Z,4.53
2023-11-24T11:20:24.348Z,4.15
2023-11-24T11:23:00.816Z,5.75
2023-11-24T11:25:27.113Z,5.18
2023-11-24T11:27:56.962Z,2.75
2023-11-24T11:30:27.104Z,2.50
2023-11-24T11:33:04.608Z,3.70
2023-11-24T11:35:35.357Z,5.00
2023-11-24T11:38:01.835Z,4.47
2023-11-24T11:40:28.217Z,2.13
2023-11-24T11:43:00.726Z,3.63
2023-11-24T11:45:31.177Z,3.88
2023-11-24T11:48:04.022Z,6.18
2023-11-24T11:50:34.758Z,4.90
2023-11-24T11:53:03.204Z,3.33
2023-11-24T11:55:30.267Z,4.43
2023-11-24T11:57:58.646Z,4.63
2023-11-24T12:00:30.176Z,2.90
2023-11-24T12:02:58.472Z,3.15
2023-11-24T12:05:27.081Z,3.33
2023-11-24T12:08:00.401Z,3.03
2023-11-24T12:10:30.608Z,1.92
2023-11-24T12:13:00.394Z,2.35
2023-11-24T12:15:26.783Z,5.35
2023-11-24T12:17:58.722Z,4.78
2023-11-24T12:20:25.645Z,8.27
2023-11-24T12:22:53.484Z,5.72
2023-11-24T12:25:22.281Z,3.83
2023-11-24T12:27:48.907Z,2.95
2023-11-24T12:30:16.099Z,3.35
2023-11-24T12:32:43.873Z,5.47
2023-11-24T12:35:10.581Z,5.35
2023-11-24T12:37:41.841Z,1.70
2023-11-24T12:40:13.144Z,2.50
2023-11-24T12:42:40.388Z,3.00
2023-11-24T12:45:09.365Z,1.38
2023-11-24T12:50:11.785Z,3.28
2023-11-24T12:52:40.091Z,2.65
2023-11-24T12:55:10.523Z,1.30
2023-11-24T12:57:43.490Z,2.03
2023-11-24T13:00:14.468Z,2.80
2023-11-24T13:02:44.724Z,2.92
2023-11-24T13:05:13.643Z,4.05
2023-11-24T13:07:43.848Z,2.63
2023-11-24T13:10:13.815Z,2.55
2023-11-24T13:12:41.348Z,3.95
2023-11-24T13:15:09.249Z,3.30
2023-11-24T13:17:36.197Z,3.75
2023-11-24T13:20:05.422Z,2.85
2023-11-24T13:22:34.972Z,5.63
2023-11-24T13:25:02.228Z,5.95
2023-11-24T13:27:30.426Z,7.15
2023-11-24T13:29:57.833Z,4.97
2023-11-24T13:32:24.231Z,3.28
2023-11-24T13:34:51.336Z,6.25
2023-11-24T13:37:18.624Z,4.03
2023-11-24T13:39:46.735Z,2.25
2023-11-24T13:42:17.244Z,2.92
2023-11-24T13:44:43.596Z,4.15
2023-11-24T13:47:14.674Z,2.38
2023-11-24T13:49:41.773Z,4.30
2023-11-24T13:52:08.497Z,6.30
2023-11-24T13:54:36.462Z,3.08
2023-11-24T13:57:03.762Z,3.88
2023-11-24T13:59:30.850Z,6.32
2023-11-24T14:01:57.344Z,6.38
2023-11-24T14:04:25.548Z,6.05
2023-11-24T14:06:52.829Z,3.67
2023-11-24T14:09:30.467Z,3.05
2023-11-24T14:11:57.492Z,5.45
2023-11-24T14:14:24.608Z,4.10
2023-11-24T14:16:51.464Z,6.13
2023-11-24T14:19:18.247Z,5.68
2023-11-24T14:21:45.067Z,4.03
2023-11-24T14:24:12.651Z,7.32
2023-11-24T14:26:45.110Z,9.05
2023-11-24T14:29:13.673Z,8.50
2023-11-24T14:31:41.035Z,4.43
2023-11-24T14:34:07.780Z,8.63
2023-11-24T14:36:36.857Z,8.00
2023-11-24T14:39:04.409Z,5.30
2023-11-24T14:41:33.745Z,9.52
2023-11-24T14:44:00.419Z,5.13
2023-11-24T14:46:30.892Z,7.43
2023-11-24T14:48:57.970Z,3.55
2023-11-24T14:51:27.518Z,4.93
2023-11-24T14:53:53.961Z,6.55
2023-11-24T14:56:20.537Z,4.43
2023-11-24T14:58:47.187Z,6.63
2023-11-24T15:01:20.872Z,7.28
2023-11-24T15:03:50.558Z,5.18
2023-11-24T15:06:18.945Z,5.88
2023-11-24T15:08:55.248Z,3.38
2023-11-24T15:11:23.349Z,6.85
2023-11-24T15:13:55.925Z,4.63
2023-11-24T15:16:29.718Z,8.35
2023-11-24T15:18:56.756Z,8.18
2023-11-24T15:21:34.768Z,5.07
2023-11-24T15:24:03.276Z,6.43
2023-11-24T15:26:30.026Z,5.95
2023-11-24T15:28:57.066Z,9.90
2023-11-24T15:31:30.359Z,6.82
2023-11-24T15:33:58.047Z,6.18
2023-11-24T15:36:30.573Z,4.57
2023-11-24T15:38:57.820Z,2.70
2023-11-24T15:41:38.983Z,4.38
2023-11-24T15:44:10.292Z,5.35
2023-11-24T15:46:39.144Z,3.22
2023-11-24T15:49:16.713Z,2.63
2023-11-24T15:51:46.847Z,3.80
2023-11-24T15:54:14.486Z,3.17
2023-11-24T15:56:40.910Z,2.40
2023-11-24T15:59:12.413Z,1.42
2023-11-24T16:01:42.499Z,7.68
2023-11-24T16:04:11.766Z,4.85
2023-11-24T16:06:46.569Z,4.15
2023-11-24T16:09:13.863Z,3.33
2023-11-24T16:11:58.986Z,7.82
2023-11-24T16:14:25.676Z,5.28
2023-11-24T16:16:53.646Z,7.13
2023-11-24T16:19:20.594Z,5.55
2023-11-24T16:21:47.000Z,6.10
2023-11-24T16:24:13.415Z,4.60
2023-11-24T16:26:39.788Z,3.47
2023-11-24T16:29:06.152Z,3.65
2023-11-24T16:31:34.068Z,6.00
2023-11-24T16:34:02.331Z,2.97
2023-11-24T16:36:28.919Z,5.40
2023-11-24T16:38:55.824Z,5.97
2023-11-24T16:41:22.216Z,5.55
2023-11-24T16:43:48.574Z,3.28
2023-11-24T16:46:15.006Z,2.67
2023-11-24T16:48:41.670Z,1.83
2023-11-24T16:51:08.561Z,3.83
2023-11-24T16:53:34.912Z,3.97
2023-11-24T16:56:01.327Z,4.00
2023-11-24T16:58:27.766Z,2.10
2023-11-24T17:00:55.395Z,2.80
2023-11-24T17:03:21.889Z,2.58
2023-11-24T17:05:48.340Z,6.57
2023-11-24T17:08:14.674Z,4.63
2023-11-24T17:10:41.089Z,3.97
2023-11-24T17:13:07.787Z,1.63
2023-11-24T17:15:34.361Z,1.13
2023-11-24T17:18:00.762Z,1.77
2023-11-24T17:20:28.015Z,2.58
2023-11-24T17:22:54.542Z,1.98
2023-11-24T17:25:32.092Z,3.05
2023-11-24T17:28:03.247Z,2.63
2023-11-24T17:30:29.684Z,1.92
2023-11-24T17:32:56.282Z,2.45
2023-11-24T17:35:24.940Z,2.13
2023-11-24T17:37:52.244Z,3.67
2023-11-24T17:40:18.716Z,4.55
2023-11-24T17:42:45.489Z,5.53
2023-11-24T17:45:16.780Z,3.25
2023-11-24T17:47:45.305Z,3.35
2023-11-24T17:50:11.790Z,6.47
2023-11-24T17:52:39.487Z,5.30
2023-11-24T17:55:10.112Z,7.93
2023-11-24T17:57:39.948Z,5.55
2023-11-24T18:00:12.542Z,5.70
2023-11-24T18:02:39.656Z,4.13
2023-11-24T18:05:07.964Z,13.23
2023-11-24T18:07:35.349Z,12.00
2023-11-24T18:10:03.464Z,9.48
2023-11-24T18:12:30.002Z,9.50
2023-11-24T18:14:56.345Z,12.13
2023-11-24T18:17:22.765Z,9.95
2023-11-24T18:19:50.387Z,10.18
2023-11-24T18:22:18.524Z,13.20
2023-11-24T18:24:45.071Z,6.80
2023-11-24T18:27:11.449Z,8.30
2023-11-24T18:29:38.962Z,3.92
2023-11-24T18:32:05.872Z,6.15
2023-11-24T18:34:32.289Z,5.85
2023-11-24T18:36:59.028Z,7.32
2023-11-24T18:39:28.700Z,6.05
2023-11-24T18:41:55.383Z,4.18
2023-11-24T18:44:21.758Z,3.30
2023-11-24T18:46:49.174Z,5.78
2023-11-24T18:49:16.705Z,3.15
2023-11-24T18:51:44.025Z,4.78
2023-11-24T18:54:10.662Z,4.95
2023-11-24T18:56:37.144Z,6.18
2023-11-24T18:59:03.483Z,11.60
2023-11-24T19:01:29.926Z,4.90
2023-11-24T19:03:56.405Z,5.40
2023-11-24T19:06:23.681Z,6.70
2023-11-24T19:08:51.895Z,4.03
2023-11-24T19:11:21.612Z,3.20
2023-11-24T19:13:49.669Z,3.60
2023-11-24T19:16:16.475Z,5.03
2023-11-24T19:18:43.624Z,4.65
2023-11-24T19:21:16.797Z,5.60
2023-11-24T19:23:43.566Z,6.90
2023-11-24T19:26:12.810Z,5.15
2023-11-24T19:28:41.433Z,5.65
2023-11-24T19:31:08.590Z,9.38
2023-11-24T19:33:35.835Z,5.57
2023-11-24T19:36:02.303Z,4.63
2023-11-24T19:38:28.798Z,5.65
2023-11-24T19:40:55.193Z,5.72
2023-11-24T19:43:21.590Z,8.75
2023-11-24T19:45:48.327Z,9.55
2023-11-24T19:48:18.728Z,6.60
2023-11-24T19:50:45.087Z,4.65
2023-11-24T19:53:11.594Z,3.85
2023-11-24T19:55:38.019Z,7.78
2023-11-24T19:58:06.789Z,4.18
2023-11-24T20:00:33.158Z,5.15
2023-11-24T20:02:59.598Z,8.82
2023-11-24T20:05:28.282Z,8.57
2023-11-24T20:07:54.697Z,7.40
2023-11-24T20:10:21.115Z,5.38
2023-11-24T20:12:47.495Z,5.47
2023-11-24T20:15:14.371Z,6.72
2023-11-24T20:17:40.784Z,7.53
2023-11-24T20:20:09.716Z,5.57
2023-11-24T20:22:36.185Z,7.50
2023-11-24T20:25:05.095Z,10.40
2023-11-24T20:27:31.517Z,10.50
2023-11-24T20:29:58.683Z,11.48
2023-11-24T20:32:25.122Z,8.60
2023-11-24T20:34:51.560Z,10.65
2023-11-24T20:37:18.232Z,9.63
2023-11-24T20:39:45.180Z,9.80
2023-11-24T20:42:12.403Z,10.68
2023-11-24T20:44:39.122Z,10.82
2023-11-24T20:47:05.788Z,4.28
2023-11-24T20:49:32.341Z,8.23
2023-11-24T20:51:58.815Z,4.72
2023-11-24T20:54:25.205Z,2.55
2023-11-24T20:56:51.804Z,2.47
2023-11-24T20:59:18.742Z,6.00
2023-11-24T21:01:45.348Z,4.45
2023-11-24T21:04:13.256Z,3.53
2023-11-24T21:06:41.241Z,8.43
2023-11-24T21:09:11.056Z,8.25
2023-11-24T21:11:37.514Z,7.63
2023-11-24T21:14:03.861Z,7.60
2023-11-24T21:16:30.852Z,8.07
2023-11-24T21:18:57.271Z,10.48
2023-11-24T21:21:23.730Z,9.98
2023-11-24T21:23:50.810Z,5.40
2023-11-24T21:26:24.055Z,8.25
2023-11-24T21:28:51.750Z,12.10
2023-11-24T21:31:21.596Z,7.80
2023-11-24T21:33:50.019Z,7.05
2023-11-24T21:36:16.844Z,7.45
2023-11-24T21:38:44.147Z,4.85
2023-11-24T21:41:12.022Z,13.02
2023-11-24T21:43:40.686Z,9.32
2023-11-24T21:46:07.380Z,9.32
2023-11-24T21:48:34.275Z,5.70
2023-11-24T21:51:05.253Z,5.85
2023-11-24T21:53:31.731Z,4.57
2023-11-24T21:55:58.181Z,6.75
2023-11-24T21:58:24.603Z,4.43
2023-11-24T22:00:50.972Z,7.78
2023-11-24T22:03:17.430Z,5.82
2023-11-24T22:05:44.608Z,4.60
2023-11-24T22:08:10.991Z,8.07
2023-11-24T22:10:37.465Z,8.32
2023-11-24T22:13:04.991Z,6.57
2023-11-24T22:15:31.630Z,8.82
2023-11-24T22:17:58.903Z,6.60
2023-11-24T22:20:25.404Z,4.90
2023-11-24T22:22:51.962Z,7.05
2023-11-24T22:25:18.503Z,7.72
2023-11-24T22:27:45.111Z,9.15
2023-11-24T22:30:11.739Z,9.43
2023-11-24T22:32:38.209Z,6.90
2023-11-24T22:35:05.116Z,6.95
2023-11-24T22:37:32.915Z,6.40
2023-11-24T22:39:59.598Z,5.50
2023-11-24T22:42:26.030Z,8.82
2023-11-24T22:44:53.972Z,2.15
2023-11-24T22:47:20.541Z,10.18
2023-11-24T22:49:46.989Z,9.32
2023-11-24T22:52:13.445Z,7.95
2023-11-24T22:54:41.848Z,5.63
2023-11-24T22:57:08.252Z,6.32
2023-11-24T22:59:34.721Z,5.30
2023-11-24T23:02:01.483Z,4.28
2023-11-24T23:04:28.046Z,5.68
2023-11-24T23:06:54.397Z,7.50
2023-11-24T23:09:22.787Z,4.63
2023-11-24T23:11:49.969Z,3.42
2023-11-24T23:14:16.380Z,9.77
2023-11-24T23:16:44.950Z,6.05
2023-11-24T23:19:12.737Z,6.72
2023-11-24T23:21:41.552Z,6.60
2023-11-24T23:24:11.539Z,3.95
2023-11-24T23:26:38.533Z,6.82
2023-11-24T23:29:05.029Z,7.15
2023-11-24T23:31:31.489Z,6.20
2023-11-24T23:33:57.979Z,5.38
2023-11-24T23:36:24.527Z,5.35
2023-11-24T23:38:51.316Z,4.32
2023-11-24T23:41:17.848Z,6.18
2023-11-24T23:43:44.418Z,7.00
2023-11-24T23:46:12.973Z,4.80
2023-11-24T23:48:39.948Z,6.13
2023-11-24T23:51:07.443Z,2.72
2023-11-24T23:53:34.239Z,4.43
2023-11-24T23:56:01.022Z,7.57
2023-11-24T23:58:27.761Z,4.05
